Time;durP1;ratioP1;P1;durP2;ratioP2;P2;SDS_P1;SDS_P2;PMS_P1;PMS_P2;Temp;Humidity;BMP_temperature;BMP_pressure;BME280_temperature;BME280_humidity;BME280_pressure;Samples;Min_cycle;Max_cycle;Signal;HPM_P1;HPM_P2
2023/08/26 00:00:43;;;;;;;6.70;2.45;;;13.60;99.90;;;;;;5090443;28;20105;-79
2023/08/26 00:03:08;;;;;;;5.25;2.22;;;13.60;99.90;;;;;;5091188;28;20111;-78
2023/08/26 00:05:34;;;;;;;8.00;2.60;;;13.60;99.90;;;;;;5090419;28;20473;-79
2023/08/26 00:08:00;;;;;;;4.82;2.00;;;13.60;99.90;;;;;;5090614;28;20040;-79
2023/08/26 00:10:27;;;;;;;7.47;2.60;;;13.60;99.90;;;;;;5090245;28;20131;-79
2023/08/26 00:12:53;;;;;;;8.88;2.72;;;13.50;99.90;;;;;;5090629;28;20024;-79
2023/08/26 00:15:18;;;;;;;7.38;2.55;;;13.60;99.90;;;;;;5093924;28;20039;-79
2023/08/26 00:17:44;;;;;;;10.73;2.53;;;13.60;99.90;;;;;;5094829;28;20067;-78
2023/08/26 00:20:11;;;;;;;10.07;2.88;;;13.60;99.90;;;;;;5094951;28;20048;-79
2023/08/26 00:22:37;;;;;;;11.32;2.33;;;13.60;99.90;;;;;;5076305;28;20039;-79
2023/08/26 00:25:03;;;;;;;6.07;2.05;;;13.50;99.90;;;;;;5095272;28;20108;-79
2023/08/26 00:27:29;;;;;;;6.47;2.33;;;13.50;99.90;;;;;;5094387;28;20127;-78
2023/08/26 00:29:54;;;;;;;8.75;2.88;;;13.50;99.90;;;;;;5094946;28;20372;-79
2023/08/26 00:32:20;;;;;;;6.95;2.50;;;13.50;99.90;;;;;;5075816;28;20491;-79
2023/08/26 00:34:46;;;;;;;7.82;2.42;;;13.50;99.90;;;;;;5094485;28;20089;-79
2023/08/26 00:37:12;;;;;;;7.78;2.67;;;13.50;99.90;;;;;;5094498;28;20035;-79
2023/08/26 00:39:38;;;;;;;7.22;2.53;;;13.50;99.90;;;;;;5093663;28;20815;-79
2023/08/26 00:42:04;;;;;;;9.93;2.70;;;13.50;99.90;;;;;;5094049;28;20024;-78
2023/08/26 00:44:30;;;;;;;7.90;3.03;;;13.50;99.90;;;;;;5093584;28;20052;-80
2023/08/26 00:47:01;;;;;;;8.75;2.40;;;13.50;99.90;;;;;;5093783;28;20339;-78
2023/08/26 00:49:28;;;;;;;7.93;2.70;;;13.50;99.90;;;;;;5093929;28;20499;-78
2023/08/26 00:51:56;;;;;;;8.25;2.90;;;13.50;99.90;;;;;;5093962;28;20347;-79
2023/08/26 00:54:22;;;;;;;6.80;2.70;;;13.50;99.90;;;;;;5092909;28;20097;-79
2023/08/26 00:56:48;;;;;;;9.98;2.72;;;13.50;99.90;;;;;;5093945;28;20093;-79
2023/08/26 00:59:14;;;;;;;7.38;2.70;;;13.40;99.90;;;;;;5093751;28;20032;-79
2023/08/26 01:01:41;;;;;;;6.07;2.33;;;13.50;99.90;;;;;;5093388;28;20576;-79
2023/08/26 01:04:07;;;;;;;5.78;2.28;;;13.50;99.90;;;;;;5093815;28;20094;-79
2023/08/26 01:06:33;;;;;;;9.23;3.72;;;13.40;99.90;;;;;;5093251;28;20144;-80
2023/08/26 01:08:58;;;;;;;4.60;2.15;;;13.40;99.90;;;;;;5093870;28;20028;-78
2023/08/26 01:11:49;;;;;;;6.38;2.50;;;13.40;99.90;;;;;;5093433;28;20326;-79
2023/08/26 01:14:26;;;;;;;7.18;2.50;;;13.40;99.90;;;;;;5093576;28;20027;-78
2023/08/26 01:16:52;;;;;;;6.80;2.78;;;13.40;99.90;;;;;;5094256;28;20074;-78
2023/08/26 01:19:36;;;;;;;6.63;2.40;;;13.30;99.90;;;;;;5093771;28;20114;-79
2023/08/26 01:22:06;;;;;;;5.15;2.40;;;13.30;99.90;;;;;;5093610;28;20024;-79
2023/08/26 01:24:33;;;;;;;5.93;2.60;;;13.30;99.90;;;;;;5093281;28;20077;-78
2023/08/26 01:26:59;;;;;;;8.70;2.40;;;13.30;99.90;;;;;;5074742;28;20032;-79
2023/08/26 01:29:25;;;;;;;5.22;2.25;;;13.30;99.90;;;;;;5092866;28;20423;-81
2023/08/26 01:32:30;;;;;;;10.27;2.38;;;13.30;99.90;;;;;;5093407;28;20353;-79
2023/08/26 01:34:58;;;;;;;5.35;2.28;;;13.30;99.90;;;;;;5093117;28;20028;-79
2023/08/26 01:37:42;;;;;;;7.22;2.67;;;13.30;99.90;;;;;;5093117;28;20020;-79
2023/08/26 01:40:11;;;;;;;5.78;2.55;;;13.30;99.90;;;;;;5092979;28;20039;-78
2023/08/26 01:42:41;;;;;;;10.98;3.10;;;13.30;99.90;;;;;;5092396;28;20032;-77
2023/08/26 01:45:07;;;;;;;5.13;2.20;;;13.30;99.90;;;;;;5092729;28;20150;-77
2023/08/26 01:47:33;;;;;;;11.57;2.60;;;13.30;99.90;;;;;;5091751;28;20032;-78
2023/08/26 01:49:59;;;;;;;7.90;3.00;;;13.30;99.90;;;;;;5092735;28;20081;-78
2023/08/26 01:52:24;;;;;;;15.30;2.95;;;13.30;99.90;;;;;;5092162;28;20358;-78
2023/08/26 01:54:50;;;;;;;11.20;3.00;;;13.20;99.90;;;;;;5092873;28;20024;-78
2023/08/26 01:57:16;;;;;;;10.40;3.03;;;13.30;99.90;;;;;;5092818;28;20241;-77
2023/08/26 01:59:42;;;;;;;9.95;2.90;;;13.20;99.90;;;;;;5091960;28;20028;-77
2023/08/26 02:02:08;;;;;;;9.48;3.00;;;13.20;99.90;;;;;;5093028;28;20039;-78
2023/08/26 02:04:34;;;;;;;7.95;3.20;;;13.20;99.90;;;;;;5091942;28;20357;-77
2023/08/26 02:06:59;;;;;;;10.20;3.03;;;13.10;99.90;;;;;;5092651;28;20086;-77
2023/08/26 02:09:25;;;;;;;6.45;2.72;;;13.10;99.90;;;;;;5091918;28;20155;-78
2023/08/26 02:11:51;;;;;;;11.20;3.33;;;13.00;99.90;;;;;;5092058;28;20028;-78
2023/08/26 02:14:17;;;;;;;7.65;3.28;;;13.00;99.90;;;;;;5092253;28;20389;-78
2023/08/26 02:16:43;;;;;;;9.32;2.53;;;13.00;99.90;;;;;;5091958;28;20038;-79
2023/08/26 02:19:08;;;;;;;11.75;3.72;;;13.00;99.90;;;;;;5092233;28;20024;-78
2023/08/26 02:21:34;;;;;;;9.18;3.15;;;13.00;99.90;;;;;;5091814;28;20119;-79
2023/08/26 02:24:00;;;;;;;9.10;2.70;;;13.10;99.90;;;;;;5092516;28;20423;-79
2023/08/26 02:26:26;;;;;;;11.70;3.20;;;13.10;99.90;;;;;;5091840;28;20491;-78
2023/08/26 02:28:52;;;;;;;5.93;2.50;;;13.10;99.90;;;;;;5091919;28;20106;-79
2023/08/26 02:31:18;;;;;;;10.70;2.92;;;13.10;99.90;;;;;;5091713;28;20111;-78
2023/08/26 02:33:43;;;;;;;8.73;3.03;;;13.10;99.90;;;;;;5091556;28;20473;-80
2023/08/26 02:36:11;;;;;;;7.57;2.63;;;13.10;99.90;;;;;;5091805;28;20519;-79
2023/08/26 02:38:36;;;;;;;10.25;2.97;;;13.10;99.90;;;;;;5091294;28;20036;-79
2023/08/26 02:41:02;;;;;;;13.52;2.90;;;13.10;99.90;;;;;;5091411;28;20024;-79
2023/08/26 02:43:28;;;;;;;7.30;2.85;;;13.00;99.90;;;;;;5091391;28;20032;-79
2023/08/26 02:45:55;;;;;;;9.23;3.42;;;13.00;99.90;;;;;;5092017;28;20032;-79
2023/08/26 02:48:22;;;;;;;9.15;2.80;;;13.00;99.90;;;;;;5091657;28;20051;-79
2023/08/26 02:51:00;;;;;;;13.80;3.10;;;13.00;99.90;;;;;;5091006;28;20089;-79
2023/08/26 02:53:27;;;;;;;7.95;2.92;;;13.00;99.90;;;;;;5091749;28;20402;-79
2023/08/26 02:55:54;;;;;;;8.73;3.20;;;13.00;99.90;;;;;;5091489;28;20031;-79
2023/08/26 02:58:20;;;;;;;8.70;3.05;;;13.10;99.90;;;;;;5091488;28;20085;-79
2023/08/26 03:00:47;;;;;;;7.47;2.90;;;13.10;99.90;;;;;;5090902;28;20028;-78
2023/08/26 03:03:13;;;;;;;9.98;2.58;;;13.10;99.90;;;;;;5091621;28;20054;-78
2023/08/26 03:05:39;;;;;;;8.20;3.28;;;13.20;99.90;;;;;;5090484;28;20377;-78
2023/08/26 03:08:05;;;;;;;6.07;2.63;;;13.10;99.90;;;;;;5091622;28;20020;-78
2023/08/26 03:10:31;;;;;;;9.32;2.63;;;13.10;99.90;;;;;;5090674;28;20027;-79
2023/08/26 03:12:57;;;;;;;11.27;2.95;;;13.10;99.90;;;;;;5091623;28;20035;-79
2023/08/26 03:15:27;;;;;;;9.23;2.95;;;13.00;99.90;;;;;;5091502;28;20024;-79
2023/08/26 03:17:53;;;;;;;12.32;3.13;;;13.00;99.90;;;;;;5090859;28;20016;-79
2023/08/26 03:20:19;;;;;;;6.05;2.70;;;13.00;99.90;;;;;;5091204;28;20031;-79
2023/08/26 03:22:45;;;;;;;8.55;2.83;;;13.00;99.90;;;;;;5090360;28;20029;-79
2023/08/26 03:25:12;;;;;;;7.85;2.70;;;12.80;99.90;;;;;;5091311;28;20039;-78
2023/08/26 03:27:37;;;;;;;6.32;2.15;;;12.80;99.90;;;;;;5089945;28;20489;-79
2023/08/26 03:30:04;;;;;;;5.22;2.53;;;12.80;99.90;;;;;;5090924;28;20035;-78
2023/08/26 03:32:29;;;;;;;6.82;2.60;;;12.80;99.90;;;;;;5091033;28;20024;-77
2023/08/26 03:34:55;;;;;;;7.55;2.65;;;12.80;99.90;;;;;;5090396;28;20024;-79
2023/08/26 03:37:21;;;;;;;7.00;2.55;;;12.80;99.90;;;;;;5091096;28;20381;-79
2023/08/26 03:39:47;;;;;;;10.07;3.22;;;12.80;99.90;;;;;;5089965;28;20366;-79
2023/08/26 03:42:12;;;;;;;5.45;2.10;;;12.90;99.90;;;;;;5091101;28;20074;-79
2023/08/26 03:44:38;;;;;;;6.03;2.42;;;12.90;99.90;;;;;;5090022;28;20097;-79
2023/08/26 03:47:04;;;;;;;9.05;2.50;;;12.90;99.90;;;;;;5090414;28;20494;-79
2023/08/26 03:49:30;;;;;;;5.55;2.20;;;12.90;99.90;;;;;;5090308;28;20168;-78
2023/08/26 03:51:56;;;;;;;7.28;2.40;;;12.90;99.90;;;;;;5089984;28;20024;-79
2023/08/26 03:54:21;;;;;;;5.82;2.38;;;12.90;99.90;;;;;;5091386;28;20606;-78
2023/08/26 03:56:47;;;;;;;4.88;2.40;;;12.90;99.90;;;;;;5089861;28;20032;-78
2023/08/26 03:59:13;;;;;;;4.57;2.00;;;12.90;99.90;;;;;;5090425;28;20032;-78
2023/08/26 04:01:39;;;;;;;7.90;2.05;;;13.00;99.90;;;;;;5090054;28;20039;-79
2023/08/26 04:04:05;;;;;;;5.60;2.10;;;13.00;99.90;;;;;;5072689;28;20028;-78
2023/08/26 04:06:31;;;;;;;9.85;2.22;;;13.00;99.90;;;;;;5090701;28;20036;-79
2023/08/26 04:08:57;;;;;;;5.38;1.80;;;13.00;99.90;;;;;;5072251;28;20024;-79
2023/08/26 04:11:23;;;;;;;8.20;1.75;;;13.10;99.90;;;;;;5090485;28;20033;-79
2023/08/26 04:13:48;;;;;;;6.03;2.00;;;13.00;99.90;;;;;;5089894;28;20553;-78
2023/08/26 04:16:19;;;;;;;5.57;2.00;;;13.00;99.90;;;;;;5090102;28;20103;-78
2023/08/26 04:18:45;;;;;;;3.63;1.67;;;13.00;99.90;;;;;;5089888;28;20122;-79
2023/08/26 04:21:11;;;;;;;5.90;1.90;;;13.00;99.90;;;;;;5071788;28;20207;-79
2023/08/26 04:23:36;;;;;;;7.43;2.40;;;13.00;99.90;;;;;;5090144;28;20025;-79
2023/08/26 04:26:05;;;;;;;8.20;2.28;;;12.90;99.90;;;;;;5090361;28;20062;-79
2023/08/26 04:28:31;;;;;;;6.53;2.45;;;12.90;99.90;;;;;;5090221;28;20093;-79
2023/08/26 04:31:00;;;;;;;7.07;2.03;;;12.80;99.90;;;;;;5089757;28;20027;-79
2023/08/26 04:33:32;;;;;;;11.65;1.98;;;12.90;99.90;;;;;;5090193;28;20042;-79
2023/08/26 04:35:57;;;;;;;4.70;1.85;;;12.80;99.90;;;;;;5089597;28;20097;-79
2023/08/26 04:38:23;;;;;;;5.45;1.77;;;12.80;99.90;;;;;;5090343;28;20028;-78
2023/08/26 04:40:49;;;;;;;6.45;1.60;;;12.80;99.90;;;;;;5089745;28;20118;-79
2023/08/26 04:43:15;;;;;;;6.38;1.90;;;12.80;99.90;;;;;;5090099;28;20102;-79
2023/08/26 04:45:40;;;;;;;5.15;1.80;;;12.80;99.90;;;;;;5071136;28;20043;-79
2023/08/26 04:48:07;;;;;;;6.88;1.98;;;12.80;99.90;;;;;;5090197;28;20029;-79
2023/08/26 04:50:35;;;;;;;6.28;1.85;;;12.80;99.90;;;;;;5090179;28;20035;-78
2023/08/26 04:53:01;;;;;;;3.92;1.67;;;12.80;99.90;;;;;;5090642;28;20087;-77
2023/08/26 04:55:26;;;;;;;7.90;1.92;;;12.90;99.90;;;;;;5091639;28;20031;-78
2023/08/26 04:57:53;;;;;;;8.52;2.00;;;12.90;99.90;;;;;;5090158;28;20103;-79
2023/08/26 05:00:19;;;;;;;6.82;1.75;;;12.90;99.90;;;;;;5092642;28;20020;-79
2023/08/26 05:02:45;;;;;;;4.70;1.70;;;13.00;99.90;;;;;;5094283;28;20035;-79
2023/08/26 05:05:11;;;;;;;4.28;1.42;;;13.00;99.90;;;;;;5094552;28;20028;-80
2023/08/26 05:07:36;;;;;;;4.85;1.50;;;13.00;99.90;;;;;;5093366;28;20101;-80
2023/08/26 05:10:03;;;;;;;7.93;2.00;;;13.10;99.90;;;;;;5093490;28;20038;-79
2023/08/26 05:12:32;;;;;;;7.70;1.85;;;13.10;99.90;;;;;;5093464;28;20534;-79
2023/08/26 05:14:58;;;;;;;4.60;1.80;;;13.10;99.90;;;;;;5093152;28;20803;-79
2023/08/26 05:17:24;;;;;;;11.40;1.98;;;13.10;99.90;;;;;;5093684;28;20024;-79
2023/08/26 05:19:50;;;;;;;4.95;1.45;;;13.10;99.90;;;;;;5092646;28;20028;-78
2023/08/26 05:22:15;;;;;;;5.47;2.00;;;13.10;99.90;;;;;;5093621;28;20024;-77
2023/08/26 05:24:41;;;;;;;4.35;1.55;;;13.10;99.90;;;;;;5093391;28;20327;-79
2023/08/26 05:27:07;;;;;;;9.98;2.03;;;13.10;99.90;;;;;;5093487;28;20064;-78
2023/08/26 05:29:33;;;;;;;6.60;1.30;;;13.10;99.90;;;;;;5092870;28;20028;-78
2023/08/26 05:31:59;;;;;;;5.22;2.08;;;13.10;99.90;;;;;;5092557;28;20015;-78
2023/08/26 05:34:25;;;;;;;3.58;1.65;;;13.10;99.90;;;;;;5093111;28;20345;-79
2023/08/26 05:36:51;;;;;;;4.32;1.35;;;13.10;99.90;;;;;;5092357;28;20039;-78
2023/08/26 05:39:17;;;;;;;3.47;1.80;;;13.10;99.90;;;;;;5093622;28;20031;-78
2023/08/26 05:41:43;;;;;;;6.68;1.95;;;13.20;99.90;;;;;;5092436;28;20020;-79
2023/08/26 05:44:08;;;;;;;3.13;1.48;;;13.10;99.90;;;;;;5093042;28;20436;-78
2023/08/26 05:46:34;;;;;;;6.10;1.85;;;13.20;99.90;;;;;;5092817;28;20040;-78
2023/08/26 05:49:00;;;;;;;4.55;1.45;;;13.20;99.90;;;;;;5092249;28;20055;-78
2023/08/26 05:51:26;;;;;;;4.50;1.58;;;13.20;99.90;;;;;;5092875;28;20035;-78
2023/08/26 05:53:53;;;;;;;6.30;1.70;;;13.20;99.90;;;;;;5092086;28;20016;-78
2023/08/26 05:56:19;;;;;;;6.32;1.40;;;13.20;99.90;;;;;;5092739;28;20392;-79
2023/08/26 05:58:44;;;;;;;4.72;1.30;;;13.20;99.90;;;;;;5073781;28;20131;-78
2023/08/26 06:01:10;;;;;;;5.70;1.30;;;13.20;99.90;;;;;;5092637;28;20034;-79
2023/08/26 06:03:36;;;;;;;3.90;1.50;;;13.20;99.90;;;;;;5092398;28;20461;-79
2023/08/26 06:06:03;;;;;;;3.63;1.50;;;13.20;99.90;;;;;;5092037;28;20036;-79
2023/08/26 06:08:29;;;;;;;2.50;1.17;;;13.20;99.90;;;;;;5092477;28;20059;-79
2023/08/26 06:10:55;;;;;;;5.45;1.55;;;13.20;99.90;;;;;;5091513;28;20402;-79
2023/08/26 06:13:21;;;;;;;6.70;1.33;;;13.20;99.90;;;;;;5092682;28;20031;-78
2023/08/26 06:15:56;;;;;;;3.88;1.23;;;13.20;99.90;;;;;;5091531;28;20024;-79
2023/08/26 06:18:23;;;;;;;4.70;1.10;;;13.30;99.90;;;;;;5092359;28;20084;-78
2023/08/26 06:20:52;;;;;;;8.35;1.83;;;13.30;99.90;;;;;;5091670;28;20422;-79
2023/08/26 06:23:19;;;;;;;7.20;1.33;;;13.30;99.90;;;;;;5092459;28;20039;-78
2023/08/26 06:25:55;;;;;;;5.07;1.27;;;13.30;99.90;;;;;;5091918;28;20108;-79
2023/08/26 06:28:21;;;;;;;3.35;1.27;;;13.30;99.90;;;;;;5073451;28;20119;-79
2023/08/26 06:30:46;;;;;;;7.30;1.77;;;13.40;99.90;;;;;;5091883;28;20052;-79
2023/08/26 06:33:13;;;;;;;6.50;1.35;;;13.40;99.90;;;;;;5092031;28;20105;-78
2023/08/26 06:35:39;;;;;;;4.53;1.50;;;13.30;99.90;;;;;;5073307;28;20048;-79
2023/08/26 06:38:05;;;;;;;5.13;1.52;;;13.30;99.90;;;;;;5091326;28;20519;-79
2023/08/26 06:40:31;;;;;;;4.57;1.48;;;13.40;99.90;;;;;;5091829;28;20047;-78
2023/08/26 06:42:57;;;;;;;7.43;1.75;;;13.40;99.90;;;;;;5073065;28;20067;-78
2023/08/26 06:45:23;;;;;;;10.82;1.90;;;13.40;99.90;;;;;;5091992;28;20335;-78
2023/08/26 06:47:49;;;;;;;3.92;1.42;;;13.50;99.90;;;;;;5091276;28;20031;-78
2023/08/26 06:50:15;;;;;;;4.88;1.55;;;13.40;99.90;;;;;;5091978;28;20044;-78
2023/08/26 06:52:40;;;;;;;6.25;1.35;;;13.50;99.90;;;;;;5091231;28;20460;-79
2023/08/26 06:55:08;;;;;;;3.80;1.33;;;13.60;99.90;;;;;;5091467;28;20042;-79
2023/08/26 06:57:35;;;;;;;5.15;1.25;;;13.60;99.90;;;;;;5074123;28;20028;-79
2023/08/26 07:00:03;;;;;;;5.72;1.42;;;13.70;99.90;;;;;;5091561;28;20410;-79
2023/08/26 07:02:29;;;;;;;3.10;1.55;;;13.70;99.90;;;;;;5092344;28;20024;-79
2023/08/26 07:04:54;;;;;;;7.55;1.60;;;13.70;99.90;;;;;;5091815;28;20024;-78
2023/08/26 07:07:20;;;;;;;6.80;1.58;;;13.80;99.90;;;;;;5092250;28;20032;-78
2023/08/26 07:09:46;;;;;;;3.83;1.70;;;13.90;99.90;;;;;;5091583;28;20039;-80
2023/08/26 07:12:12;;;;;;;5.07;1.63;;;14.00;99.90;;;;;;5073181;28;20489;-78
2023/08/26 07:14:38;;;;;;;3.90;1.08;;;14.10;99.90;;;;;;5090951;28;20476;-78
2023/08/26 07:17:04;;;;;;;5.20;1.60;;;14.40;99.90;;;;;;5090933;28;20043;-79
2023/08/26 07:19:29;;;;;;;5.13;1.25;;;14.50;99.90;;;;;;5091185;28;20052;-78
2023/08/26 07:21:55;;;;;;;8.25;1.55;;;14.50;99.90;;;;;;5090260;28;20085;-79
2023/08/26 07:24:21;;;;;;;4.43;1.30;;;14.50;99.90;;;;;;5090436;28;20115;-79
2023/08/26 07:26:47;;;;;;;4.22;1.30;;;14.40;99.90;;;;;;5090370;28;20028;-78
2023/08/26 07:29:13;;;;;;;7.30;1.90;;;14.40;99.90;;;;;;5091416;28;20027;-78
2023/08/26 07:31:38;;;;;;;3.25;1.33;;;14.50;99.90;;;;;;5072810;28;20420;-79
2023/08/26 07:34:04;;;;;;;4.15;2.00;;;14.60;99.90;;;;;;5090500;28;20729;-80
2023/08/26 07:36:30;;;;;;;4.90;1.35;;;14.80;99.90;;;;;;5090648;28;20043;-79
2023/08/26 07:38:55;;;;;;;4.95;1.60;;;14.90;99.90;;;;;;5090743;28;20016;-80
2023/08/26 07:41:21;;;;;;;6.32;1.63;;;15.00;99.90;;;;;;5091091;28;20150;-79
2023/08/26 07:43:47;;;;;;;6.18;1.50;;;15.00;99.90;;;;;;5090267;28;20425;-80
2023/08/26 07:46:18;;;;;;;3.33;1.20;;;15.00;99.90;;;;;;5072630;28;20084;-78
2023/08/26 07:48:44;;;;;;;6.07;1.50;;;15.00;99.90;;;;;;5090692;28;20029;-79
2023/08/26 07:51:10;;;;;;;3.53;1.38;;;14.90;99.90;;;;;;5090500;28;20020;-79
2023/08/26 07:53:36;;;;;;;3.55;1.20;;;14.90;99.90;;;;;;5090594;28;20437;-79
2023/08/26 07:56:03;;;;;;;4.43;1.10;;;14.90;99.90;;;;;;5090205;28;20028;-80
2023/08/26 07:58:29;;;;;;;5.28;1.23;;;14.90;99.90;;;;;;5090780;28;20028;-80
2023/08/26 08:00:55;;;;;;;4.93;1.50;;;15.00;99.90;;;;;;5072202;28;20020;-80
2023/08/26 08:03:21;;;;;;;5.95;1.55;;;15.00;99.90;;;;;;5090752;28;20480;-81
2023/08/26 08:05:47;;;;;;;5.97;1.73;;;15.00;99.90;;;;;;5090597;28;20048;-78
2023/08/26 08:08:13;;;;;;;7.30;1.80;;;15.00;99.90;;;;;;5090709;28;20295;-79
2023/08/26 08:10:38;;;;;;;4.72;1.40;;;15.00;99.90;;;;;;5090242;28;20101;-79
2023/08/26 08:13:05;;;;;;;8.65;1.65;;;14.90;99.90;;;;;;5089941;28;20366;-80
2023/08/26 08:15:31;;;;;;;4.03;1.27;;;14.90;99.90;;;;;;5090546;28;20358;-79
2023/08/26 08:17:57;;;;;;;4.18;1.75;;;14.90;99.90;;;;;;5090014;28;20039;-79
2023/08/26 08:20:22;;;;;;;5.13;1.48;;;15.10;99.90;;;;;;5090372;28;20036;-80
2023/08/26 08:22:49;;;;;;;7.22;1.80;;;15.20;99.90;;;;;;5090484;28;20024;-80
2023/08/26 08:25:15;;;;;;;4.65;1.42;;;15.30;99.90;;;;;;5090739;28;20032;-79
2023/08/26 08:27:41;;;;;;;5.15;1.40;;;15.50;99.90;;;;;;5090566;28;20028;-79
2023/08/26 08:30:07;;;;;;;5.72;1.63;;;15.50;99.90;;;;;;5089340;28;20035;-79
2023/08/26 08:32:33;;;;;;;4.60;1.33;;;15.60;99.90;;;;;;5072583;28;20119;-79
2023/08/26 08:35:00;;;;;;;8.55;1.63;;;15.70;99.90;;;;;;5091357;28;20325;-79
2023/08/26 08:37:25;;;;;;;5.30;1.98;;;15.70;99.90;;;;;;5094520;28;20036;-79
2023/08/26 08:39:51;;;;;;;6.20;1.42;;;15.60;99.90;;;;;;5094005;28;20027;-80
2023/08/26 08:42:18;;;;;;;3.75;1.20;;;15.60;99.90;;;;;;5094531;28;20388;-79
2023/08/26 08:44:46;;;;;;;7.13;1.60;;;15.40;99.90;;;;;;5094197;28;20052;-79
2023/08/26 08:47:18;;;;;;;5.53;1.70;;;15.30;99.90;;;;;;5075688;28;20853;-79
2023/08/26 08:49:44;;;;;;;5.90;1.30;;;15.40;99.90;;;;;;5094147;28;20042;-79
2023/08/26 08:52:11;;;;;;;4.85;1.17;;;15.40;99.90;;;;;;5093343;28;20111;-78
2023/08/26 08:54:37;;;;;;;6.68;1.77;;;15.50;99.90;;;;;;5093714;28;20020;-78
2023/08/26 08:57:03;;;;;;;5.55;1.52;;;15.50;99.90;;;;;;5093370;28;20028;-79
2023/08/26 08:59:34;;;;;;;4.30;1.58;;;15.50;99.90;;;;;;5075676;28;20048;-79
2023/08/26 09:02:00;;;;;;;7.45;1.90;;;15.50;99.90;;;;;;5093057;28;20035;-80
2023/08/26 09:04:26;;;;;;;5.63;1.65;;;15.50;99.90;;;;;;5093665;28;20376;-78
2023/08/26 09:06:54;;;;;;;6.15;1.85;;;15.60;99.90;;;;;;5093001;28;20032;-80
2023/08/26 09:09:21;;;;;;;8.50;1.60;;;15.50;99.90;;;;;;5093797;28;20043;-79
2023/08/26 09:11:48;;;;;;;7.22;1.60;;;15.50;99.90;;;;;;5093157;28;20028;-79
2023/08/26 09:14:14;;;;;;;7.22;1.98;;;15.50;99.90;;;;;;5092605;28;20024;-78
2023/08/26 09:16:41;;;;;;;6.45;1.40;;;15.40;99.90;;;;;;5093441;28;20356;-79
2023/08/26 09:19:09;;;;;;;6.45;1.55;;;15.40;99.90;;;;;;5092196;28;20168;-80
2023/08/26 09:21:43;;;;;;;4.18;1.40;;;15.50;99.90;;;;;;5093246;28;20071;-79
2023/08/26 09:24:13;;;;;;;5.82;1.45;;;15.60;99.90;;;;;;5093084;28;20028;-80
2023/08/26 09:26:41;;;;;;;5.78;1.35;;;15.60;99.90;;;;;;5093072;28;20104;-78
2023/08/26 09:29:20;;;;;;;3.25;1.40;;;15.60;99.90;;;;;;5092713;28;20109;-78
2023/08/26 09:31:50;;;;;;;6.63;1.63;;;15.70;99.90;;;;;;5093191;28;20024;-79
2023/08/26 09:34:24;;;;;;;5.93;1.52;;;15.70;99.90;;;;;;5093116;28;20182;-79
2023/08/26 09:36:50;;;;;;;5.07;1.50;;;15.80;99.90;;;;;;5093228;28;20028;-79
2023/08/26 09:39:16;;;;;;;4.85;1.17;;;15.90;99.90;;;;;;5092616;28;20036;-79
2023/08/26 09:41:45;;;;;;;4.63;1.23;;;15.90;99.90;;;;;;5093172;28;20026;-79
2023/08/26 09:44:11;;;;;;;4.25;1.48;;;15.90;99.90;;;;;;5092851;28;20060;-79
2023/08/26 09:46:39;;;;;;;3.75;1.40;;;15.90;99.90;;;;;;5092124;28;20028;-79
2023/08/26 09:49:05;;;;;;;5.00;1.10;;;15.90;99.90;;;;;;5074355;28;20500;-79
2023/08/26 09:51:31;;;;;;;4.57;1.23;;;15.90;99.90;;;;;;5092691;28;20433;-78
2023/08/26 09:53:58;;;;;;;7.25;1.63;;;15.90;99.90;;;;;;5092305;28;20052;-80
2023/08/26 09:56:25;;;;;;;4.85;1.33;;;16.00;99.90;;;;;;5092941;28;20044;-79
2023/08/26 09:58:55;;;;;;;4.93;1.40;;;16.10;99.90;;;;;;5092500;28;20380;-78
2023/08/26 10:01:22;;;;;;;5.47;1.20;;;16.30;99.90;;;;;;5092244;28;20484;-78
2023/08/26 10:04:00;;;;;;;3.03;1.13;;;16.40;99.90;;;;;;5092554;28;20445;-79
2023/08/26 10:06:28;;;;;;;2.15;0.98;;;16.60;99.90;;;;;;5092216;28;20051;-79
2023/08/26 10:08:58;;;;;;;3.33;1.25;;;16.80;99.90;;;;;;5092273;28;20024;-79
2023/08/26 10:11:25;;;;;;;2.47;0.98;;;16.90;99.90;;;;;;5092223;28;20384;-79
2023/08/26 10:13:56;;;;;;;4.35;1.38;;;16.90;99.90;;;;;;5091842;28;20027;-79
2023/08/26 10:16:23;;;;;;;2.53;0.80;;;16.80;99.90;;;;;;5092017;28;20115;-78
2023/08/26 10:18:56;;;;;;;2.60;1.13;;;16.70;99.90;;;;;;5092464;28;20050;-79
2023/08/26 10:21:22;;;;;;;2.70;1.02;;;16.70;99.90;;;;;;5092024;28;20028;-79
2023/08/26 10:23:49;;;;;;;5.55;1.67;;;16.70;99.90;;;;;;5092906;28;20094;-78
2023/08/26 10:26:18;;;;;;;3.33;1.10;;;16.70;99.90;;;;;;5090917;28;20039;-77
2023/08/26 10:28:45;;;;;;;4.35;1.35;;;16.80;99.90;;;;;;5091768;28;20059;-79
2023/08/26 10:31:13;;;;;;;4.90;1.00;;;16.80;99.90;;;;;;5091230;28;20032;-79
2023/08/26 10:34:15;;;;;;;3.95;1.45;;;16.80;99.90;;;;;;5091805;28;20024;-78
2023/08/26 10:36:45;;;;;;;4.32;1.50;;;16.90;99.90;;;;;;5091986;28;20532;-78
2023/08/26 10:39:16;;;;;;;3.97;1.30;;;17.00;99.90;;;;;;5090637;28;20028;-79
2023/08/26 10:42:12;;;;;;;4.63;1.55;;;17.20;99.90;;;;;;5091875;28;20032;-77
2023/08/26 10:44:40;;;;;;;4.18;1.33;;;17.20;99.90;;;;;;5090713;28;20408;-78
2023/08/26 10:47:06;;;;;;;2.92;1.00;;;17.10;99.90;;;;;;5091094;28;20148;-79
2023/08/26 10:49:31;;;;;;;6.82;1.48;;;17.10;99.90;;;;;;5091439;28;20127;-79
2023/08/26 10:52:17;;;;;;;5.22;1.10;;;17.00;99.90;;;;;;5091181;28;20611;-79
2023/08/26 10:54:44;;;;;;;4.32;1.10;;;17.00;99.90;;;;;;5091668;28;20027;-79
2023/08/26 10:57:10;;;;;;;5.25;1.23;;;17.10;99.90;;;;;;5090755;28;20028;-79
2023/08/26 10:59:37;;;;;;;5.88;1.20;;;17.10;99.90;;;;;;5090877;28;20024;-79
2023/08/26 11:02:09;;;;;;;5.97;1.60;;;17.10;99.90;;;;;;5090511;28;20465;-79
2023/08/26 11:04:45;;;;;;;7.50;1.60;;;17.20;99.90;;;;;;5073028;28;20101;-78
2023/08/26 11:07:18;;;;;;;5.05;1.35;;;17.30;99.90;;;;;;5090710;28;20126;-80
2023/08/26 11:09:45;;;;;;;4.10;1.30;;;17.40;99.90;;;;;;5090849;28;20028;-80
2023/08/26 11:12:27;;;;;;;3.70;1.75;;;17.40;99.90;;;;;;5090263;28;20065;-79
2023/08/26 11:15:03;;;;;;;4.90;1.20;;;17.50;99.90;;;;;;5090709;28;20500;-79
2023/08/26 11:17:29;;;;;;;5.55;1.15;;;17.50;99.90;;;;;;5090822;28;20084;-78
2023/08/26 11:19:55;;;;;;;4.95;1.42;;;17.60;99.90;;;;;;5090753;28;20108;-78
2023/08/26 11:22:27;;;;;;;3.30;0.85;;;17.90;99.90;;;;;;5089992;28;20102;-78
2023/08/26 11:24:53;;;;;;;4.80;1.10;;;17.80;99.90;;;;;;5069006;28;20043;-78
2023/08/26 11:27:19;;;;;;;3.05;1.30;;;17.90;99.90;;;;;;5069906;28;20040;-80
2023/08/26 11:29:45;;;;;;;4.75;1.25;;;18.00;99.90;;;;;;5071323;28;20021;-77
2023/08/26 11:32:11;;;;;;;4.40;0.88;;;18.20;99.90;;;;;;5070034;28;20414;-79
2023/08/26 11:34:37;;;;;;;4.43;1.20;;;18.30;99.90;;;;;;5070563;28;20056;-78
2023/08/26 11:37:03;;;;;;;4.35;1.23;;;18.50;99.90;;;;;;5070033;28;20065;-80
2023/08/26 11:39:35;;;;;;;5.22;1.05;;;18.60;99.90;;;;;;5070135;28;20028;-78
2023/08/26 11:42:21;;;;;;;5.82;1.45;;;18.60;99.90;;;;;;5086043;28;20385;-80
2023/08/26 11:44:47;;;;;;;2.83;0.95;;;18.50;99.90;;;;;;5103099;28;20462;-80
2023/08/26 11:47:13;;;;;;;2.75;0.80;;;18.40;99.90;;;;;;5090472;28;20085;-79
2023/08/26 11:49:39;;;;;;;1.73;0.70;;;18.30;99.90;;;;;;5090553;28;20034;-78
2023/08/26 11:52:06;;;;;;;2.97;0.65;;;18.20;99.90;;;;;;5072664;28;20101;-79
2023/08/26 11:54:32;;;;;;;2.53;0.70;;;18.00;99.90;;;;;;5088840;28;20095;-78
2023/08/26 11:56:59;;;;;;;2.78;0.70;;;18.00;99.90;;;;;;5089111;28;20479;-78
2023/08/26 11:59:25;;;;;;;3.33;0.60;;;18.10;99.90;;;;;;5090274;28;20040;-77
2023/08/26 12:01:51;;;;;;;3.90;0.77;;;18.20;99.90;;;;;;5090623;28;20028;-77
2023/08/26 12:04:19;;;;;;;1.60;0.57;;;18.30;99.90;;;;;;5089623;28;20020;-78
2023/08/26 12:06:45;;;;;;;2.92;0.73;;;18.50;99.90;;;;;;5105639;28;20032;-78
2023/08/26 12:09:12;;;;;;;2.35;0.80;;;18.60;99.90;;;;;;5089589;28;20035;-79
2023/08/26 12:11:42;;;;;;;2.03;0.65;;;18.70;99.90;;;;;;5090435;28;20106;-78
2023/08/26 12:14:21;;;;;;;2.65;0.80;;;18.60;99.90;;;;;;5089727;28;20035;-80
2023/08/26 12:16:47;;;;;;;2.50;0.88;;;18.80;99.90;;;;;;5090058;28;20579;-77
2023/08/26 12:19:17;;;;;;;2.17;0.90;;;19.00;99.90;;;;;;5089790;28;20048;-77
2023/08/26 12:21:47;;;;;;;3.03;0.80;;;18.90;99.90;;;;;;5090650;28;20051;-78
2023/08/26 12:24:13;;;;;;;2.72;0.60;;;18.90;99.90;;;;;;5090058;28;20085;-80
2023/08/26 12:26:39;;;;;;;2.45;0.88;;;18.70;99.90;;;;;;5089936;28;20410;-80
2023/08/26 12:29:05;;;;;;;4.97;0.90;;;18.60;99.90;;;;;;5090023;28;20088;-80
2023/08/26 12:31:34;;;;;;;2.10;0.60;;;18.70;99.90;;;;;;5105539;28;20103;-79
2023/08/26 12:34:02;;;;;;;2.78;1.00;;;18.80;99.90;;;;;;5090337;28;20027;-79
2023/08/26 12:36:29;;;;;;;2.22;0.73;;;18.90;99.90;;;;;;5089772;28;20028;-79
2023/08/26 12:38:55;;;;;;;2.38;0.80;;;18.80;99.90;;;;;;5089929;28;20026;-79
2023/08/26 12:41:20;;;;;;;4.05;0.82;;;18.70;99.90;;;;;;5105202;28;20054;-80
2023/08/26 12:43:46;;;;;;;0.88;0.70;;;18.80;99.90;;;;;;5089609;28;20063;-78
2023/08/26 12:46:13;;;;;;;2.08;0.80;;;18.90;99.90;;;;;;5105267;28;20032;-79